Time;durP1;ratioP1;P1;durP2;ratioP2;P2;SDS_P1;SDS_P2;PMS_P1;PMS_P2;Temp;Humidity;BMP_temperature;BMP_pressure;BME280_temperature;BME280_humidity;BME280_pressure;Samples;Min_cycle;Max_cycle;Signal;HPM_P1;HPM_P2
2023/07/31 00:01:14;;;;;;;3.58;2.83;;;;;;;20.27;65.76;94459.53;5092829;28;20028;-74
2023/07/31 00:03:40;;;;;;;4.35;3.08;;;;;;;20.26;66.12;94474.53;5075856;28;20497;-75
2023/07/31 00:06:05;;;;;;;3.92;2.95;;;;;;;20.25;66.96;94472.09;5092713;28;20028;-75
2023/07/31 00:08:30;;;;;;;6.00;2.95;;;;;;;20.13;66.82;94471.03;5092504;28;20048;-74
2023/07/31 00:10:56;;;;;;;3.40;2.75;;;;;;;20.18;65.89;94479.16;5092551;28;20032;-75
2023/07/31 00:13:21;;;;;;;4.63;3.38;;;;;;;20.11;67.80;94476.47;5092539;28;20020;-75
2023/07/31 00:15:47;;;;;;;3.78;2.80;;;;;;;20.05;67.82;94475.41;5092550;28;20035;-75
2023/07/31 00:18:12;;;;;;;4.72;2.95;;;;;;;20.04;69.24;94476.44;5075527;28;20024;-75
2023/07/31 00:20:38;;;;;;;4.10;3.13;;;;;;;19.88;68.13;94462.75;5092398;28;20025;-74
2023/07/31 00:23:03;;;;;;;3.85;2.78;;;;;;;19.80;68.69;94474.25;5093785;28;20036;-75
2023/07/31 00:25:29;;;;;;;3.65;3.10;;;;;;;19.75;69.42;94477.47;5092313;28;20028;-74
2023/07/31 00:27:54;;;;;;;4.13;3.03;;;;;;;19.75;69.09;94468.72;5093647;28;20032;-75
2023/07/31 00:30:19;;;;;;;4.40;3.00;;;;;;;19.58;69.97;94463.72;5075177;28;20425;-75
2023/07/31 00:32:45;;;;;;;5.60;3.30;;;;;;;19.80;69.45;94466.34;5092227;28;20032;-75
2023/07/31 00:35:10;;;;;;;5.15;3.10;;;;;;;19.81;68.22;94449.53;5092131;28;20486;-74
2023/07/31 00:37:36;;;;;;;4.78;2.90;;;;;;;19.78;69.88;94448.09;5092175;28;20028;-74
2023/07/31 00:40:03;;;;;;;3.90;3.10;;;;;;;19.76;68.23;94447.47;5093292;28;20028;-75
2023/07/31 00:42:28;;;;;;;4.43;3.38;;;;;;;19.67;69.07;94432.81;5075327;28;20035;-74
2023/07/31 00:44:54;;;;;;;3.45;3.00;;;;;;;19.67;69.54;94447.78;5091990;28;20417;-74
2023/07/31 00:47:19;;;;;;;3.92;3.03;;;;;;;19.72;70.56;94433.03;5091894;28;20024;-75
2023/07/31 00:49:45;;;;;;;4.85;2.85;;;;;;;19.77;70.70;94437.75;5091817;28;20038;-74
2023/07/31 00:52:10;;;;;;;5.10;3.50;;;;;;;19.70;70.17;94429.00;5091683;28;20031;-75
2023/07/31 00:54:35;;;;;;;4.55;3.38;;;;;;;19.64;69.91;94427.91;5092910;28;20035;-75
2023/07/31 00:57:01;;;;;;;5.03;3.47;;;;;;;19.79;70.33;94430.47;5091779;28;20086;-74
2023/07/31 00:59:26;;;;;;;3.65;3.05;;;;;;;19.65;70.74;94450.59;5091631;28;20028;-75
2023/07/31 01:01:52;;;;;;;4.15;2.90;;;;;;;19.50;70.37;94432.25;5092712;28;20024;-75
2023/07/31 01:04:17;;;;;;;3.95;3.20;;;;;;;19.46;70.63;94436.28;5090311;28;20078;-75
2023/07/31 01:06:55;;;;;;;3.50;3.10;;;;;;;19.62;71.50;94445.72;5091621;28;20052;-75
2023/07/31 01:09:27;;;;;;;4.18;3.40;;;;;;;19.54;71.27;94454.56;5091471;28;20079;-75
2023/07/31 01:11:53;;;;;;;3.97;3.33;;;;;;;19.48;71.98;94444.00;5092483;28;20028;-75
2023/07/31 01:14:18;;;;;;;4.10;3.40;;;;;;;19.49;71.17;94429.81;5091318;28;20103;-75
2023/07/31 01:16:44;;;;;;;5.75;3.85;;;;;;;19.59;71.82;94433.75;5091354;28;20034;-75
2023/07/31 01:19:10;;;;;;;4.20;3.67;;;;;;;19.60;71.15;94427.47;5091411;28;20405;-75
2023/07/31 01:21:35;;;;;;;4.30;3.47;;;;;;;19.60;71.75;94437.19;5057699;28;20028;-75
2023/07/31 01:24:16;;;;;;;3.88;3.47;;;;;;;19.47;72.25;94432.63;5092763;28;20482;-75
2023/07/31 01:26:41;;;;;;;3.50;3.20;;;;;;;19.49;72.56;94427.16;5092429;28;20059;-75
2023/07/31 01:29:34;;;;;;;4.40;3.42;;;;;;;19.43;71.38;94426.13;5074379;28;20097;-75
2023/07/31 01:32:01;;;;;;;4.88;3.60;;;;;;;19.38;70.97;94428.50;5090889;28;20524;-75
2023/07/31 01:34:27;;;;;;;5.38;4.68;;;;;;;19.33;70.92;94420.34;5090920;28;20040;-75
2023/07/31 01:36:52;;;;;;;4.93;4.30;;;;;;;19.34;71.19;94422.00;5090881;28;20024;-75
2023/07/31 01:39:20;;;;;;;5.50;4.40;;;;;;;19.37;71.49;94419.78;5090856;28;20093;-75
2023/07/31 01:41:45;;;;;;;6.88;5.18;;;;;;;19.16;71.59;94410.09;5091030;28;20107;-75
2023/07/31 01:44:11;;;;;;;6.45;5.20;;;;;;;19.24;71.98;94417.03;5092440;28;20393;-75
2023/07/31 01:46:36;;;;;;;5.93;5.32;;;;;;;19.23;72.71;94409.34;5073882;28;20061;-75
2023/07/31 01:49:01;;;;;;;7.07;6.38;;;;;;;19.22;71.58;94412.97;5073909;28;20032;-75
2023/07/31 01:51:27;;;;;;;9.25;7.65;;;;;;;19.30;72.46;94418.09;5090600;28;20421;-75
2023/07/31 01:53:52;;;;;;;9.50;8.60;;;;;;;19.17;72.70;94422.25;5092287;28;20031;-75
2023/07/31 01:56:18;;;;;;;9.88;8.32;;;;;;;19.31;72.54;94404.75;5090615;28;20082;-75
2023/07/31 01:58:43;;;;;;;9.57;7.53;;;;;;;19.31;73.18;94417.13;5092071;28;20394;-74
2023/07/31 02:01:08;;;;;;;9.38;8.38;;;;;;;19.17;73.28;94413.56;5073495;28;20040;-75
2023/07/31 02:03:34;;;;;;;9.65;8.65;;;;;;;19.27;73.06;94426.38;5091956;28;20028;-75
2023/07/31 02:06:00;;;;;;;10.50;9.50;;;;;;;19.20;73.86;94432.41;5091612;28;20036;-75
2023/07/31 02:08:25;;;;;;;10.32;9.18;;;;;;;19.37;73.40;94432.97;5091466;28;20063;-75
2023/07/31 02:10:51;;;;;;;10.77;9.68;;;;;;;19.43;73.19;94426.94;5091454;28;20043;-74
2023/07/31 02:13:17;;;;;;;11.55;10.35;;;;;;;19.29;73.00;94435.72;5090310;28;20585;-75
2023/07/31 02:15:42;;;;;;;10.80;9.70;;;;;;;19.36;73.59;94441.03;5056336;28;20035;-75
2023/07/31 02:18:07;;;;;;;12.25;11.00;;;;;;;19.37;73.39;94437.41;5073220;28;20031;-75
2023/07/31 02:20:34;;;;;;;13.07;11.68;;;;;;;19.50;72.84;94434.91;5073256;28;20036;-75
2023/07/31 02:23:00;;;;;;;13.63;12.32;;;;;;;19.52;73.06;94435.50;5073418;28;20043;-75
2023/07/31 02:25:25;;;;;;;14.90;13.50;;;;;;;19.45;73.31;94450.44;5073299;28;20036;-75
2023/07/31 02:27:50;;;;;;;16.58;14.93;;;;;;;19.60;73.16;94450.34;5090101;28;20035;-75
2023/07/31 02:30:16;;;;;;;15.88;14.27;;;;;;;19.59;73.33;94452.19;5091319;28;20039;-75
2023/07/31 02:32:41;;;;;;;16.52;14.65;;;;;;;19.55;72.64;94456.19;5091243;28;20032;-74
2023/07/31 02:35:07;;;;;;;16.85;15.00;;;;;;;19.69;73.18;94445.78;5091220;28;20032;-75
2023/07/31 02:37:33;;;;;;;16.90;15.10;;;;;;;19.56;72.95;94443.84;5073079;28;20028;-75
2023/07/31 02:39:59;;;;;;;16.50;14.88;;;;;;;19.62;73.06;94446.53;5072990;28;20039;-75
2023/07/31 02:42:24;;;;;;;15.55;13.95;;;;;;;19.72;72.75;94445.41;5089858;28;20028;-75
2023/07/31 02:44:55;;;;;;;16.48;14.77;;;;;;;19.68;72.01;94444.16;5089885;28;20039;-75
2023/07/31 02:47:21;;;;;;;17.45;15.75;;;;;;;19.66;72.93;94443.53;5089937;28;20478;-75
2023/07/31 02:49:46;;;;;;;16.70;15.00;;;;;;;19.52;73.01;94435.50;5091221;28;20039;-75
2023/07/31 02:52:11;;;;;;;19.08;15.60;;;;;;;19.39;73.58;94438.88;5089665;28;20028;-75
2023/07/31 02:54:37;;;;;;;17.73;16.05;;;;;;;19.47;73.69;94442.34;5090897;28;20093;-75
2023/07/31 02:57:02;;;;;;;17.63;15.82;;;;;;;19.50;74.34;94440.16;5090908;28;20017;-75
2023/07/31 02:59:28;;;;;;;16.67;15.00;;;;;;;19.69;72.75;94443.16;5089862;28;20390;-74
2023/07/31 03:01:53;;;;;;;17.50;15.77;;;;;;;19.71;72.35;94452.50;5056080;28;20054;-75
2023/07/31 03:04:19;;;;;;;16.92;15.23;;;;;;;19.59;73.73;94440.84;5089536;28;20105;-75
2023/07/31 03:06:44;;;;;;;16.83;15.07;;;;;;;19.90;73.54;94456.28;5090843;28;20028;-74
2023/07/31 03:09:10;;;;;;;16.73;15.13;;;;;;;19.79;72.50;94451.53;5090793;28;20055;-75
2023/07/31 03:11:35;;;;;;;16.50;14.90;;;;;;;19.85;73.23;94456.84;5072608;28;20036;-75
2023/07/31 03:14:00;;;;;;;15.73;14.13;;;;;;;19.66;71.81;94423.28;5072891;28;20437;-75
2023/07/31 03:16:26;;;;;;;15.82;14.23;;;;;;;19.71;72.41;94446.41;5089500;28;20032;-75
2023/07/31 03:18:51;;;;;;;16.58;14.95;;;;;;;19.69;73.33;94466.88;5056050;28;20052;-75
2023/07/31 03:21:17;;;;;;;16.55;14.93;;;;;;;19.55;73.19;94456.19;5089343;28;20017;-75
2023/07/31 03:23:43;;;;;;;16.27;14.27;;;;;;;19.71;72.29;94447.22;5072745;28;20035;-77
2023/07/31 03:26:08;;;;;;;15.88;14.27;;;;;;;19.83;72.77;94464.13;5091535;28;20494;-76
2023/07/31 03:28:34;;;;;;;15.60;14.00;;;;;;;19.81;72.78;94462.72;5093600;28;20035;-76
2023/07/31 03:30:59;;;;;;;15.85;14.25;;;;;;;19.75;72.70;94460.81;5076657;28;20036;-76
2023/07/31 03:33:25;;;;;;;15.70;14.20;;;;;;;19.72;72.67;94466.47;5059861;28;20024;-75
2023/07/31 03:35:51;;;;;;;18.50;14.27;;;;;;;19.44;72.28;94425.09;5093395;28;20036;-76
2023/07/31 03:38:16;;;;;;;18.15;15.90;;;;;;;19.81;72.06;94476.69;5076530;28;20081;-76
2023/07/31 03:40:41;;;;;;;17.73;16.02;;;;;;;19.83;72.45;94471.22;5076548;28;20032;-76
2023/07/31 03:43:07;;;;;;;17.50;15.68;;;;;;;19.81;72.56;94475.91;5076345;28;20027;-76
2023/07/31 03:45:32;;;;;;;17.88;16.08;;;;;;;19.85;71.90;94472.66;5094352;28;20043;-76
2023/07/31 03:47:58;;;;;;;17.52;15.73;;;;;;;19.95;71.44;94456.53;5093221;28;20028;-76
2023/07/31 03:50:24;;;;;;;17.38;15.55;;;;;;;20.06;71.11;94482.34;5094355;28;20031;-75
2023/07/31 03:52:50;;;;;;;18.15;16.23;;;;;;;19.97;71.35;94475.56;5093025;28;20047;-76
2023/07/31 03:55:15;;;;;;;17.95;16.15;;;;;;;20.07;70.70;94470.78;5093014;28;20025;-76
2023/07/31 03:57:41;;;;;;;19.77;16.63;;;;;;;20.12;71.14;94477.31;5094240;28;20406;-76
2023/07/31 04:00:07;;;;;;;17.77;15.98;;;;;;;20.13;70.07;94492.91;5094161;28;20071;-76
2023/07/31 04:02:33;;;;;;;19.10;17.15;;;;;;;20.10;70.40;94493.31;5093900;28;20390;-76
2023/07/31 04:04:58;;;;;;;18.33;16.42;;;;;;;20.00;69.93;94488.41;5092789;28;20031;-76
2023/07/31 04:07:23;;;;;;;18.70;16.05;;;;;;;20.09;69.54;94489.88;5093605;28;20099;-75
2023/07/31 04:09:49;;;;;;;19.83;16.55;;;;;;;20.21;69.47;94497.22;5092735;28;20036;-76
2023/07/31 04:12:14;;;;;;;18.05;15.80;;;;;;;20.17;69.27;94501.25;5075671;28;20472;-76
2023/07/31 04:14:40;;;;;;;18.35;16.38;;;;;;;20.21;69.51;94499.88;5093892;28;20452;-76
2023/07/31 04:17:05;;;;;;;19.58;17.48;;;;;;;20.13;69.35;94503.47;5093770;28;20546;-75
2023/07/31 04:19:31;;;;;;;18.95;16.42;;;;;;;20.16;68.96;94507.53;5093942;28;20024;-76
2023/07/31 04:21:56;;;;;;;20.02;17.45;;;;;;;20.37;68.86;94511.94;5093627;28;20016;-76
2023/07/31 04:24:24;;;;;;;20.33;16.83;;;;;;;20.33;68.27;94503.56;5092345;28;20040;-76
2023/07/31 04:26:53;;;;;;;18.00;16.05;;;;;;;20.30;68.21;94506.59;5092370;28;20028;-75
2023/07/31 04:29:18;;;;;;;18.02;16.13;;;;;;;20.32;68.14;94501.97;5092124;28;20188;-76
2023/07/31 04:31:44;;;;;;;18.58;16.63;;;;;;;20.31;68.23;94497.72;5093501;28;20099;-76
2023/07/31 04:34:09;;;;;;;17.95;15.65;;;;;;;20.43;68.11;94496.13;5092073;28;20032;-76
2023/07/31 04:36:34;;;;;;;18.13;16.10;;;;;;;20.44;68.15;94499.59;5092264;28;20415;-76
2023/07/31 04:39:00;;;;;;;18.30;16.40;;;;;;;20.64;67.21;94494.44;5091960;28;20077;-76
2023/07/31 04:41:26;;;;;;;18.80;16.80;;;;;;;20.49;67.35;94491.91;5092021;28;20036;-76
2023/07/31 04:43:51;;;;;;;18.30;16.30;;;;;;;20.55;67.54;94504.34;5075278;28;20024;-76
2023/07/31 04:46:16;;;;;;;19.35;16.30;;;;;;;20.67;67.10;94488.75;5091970;28;20020;-77
2023/07/31 04:48:42;;;;;;;18.27;16.05;;;;;;;20.69;67.23;94505.22;5092019;28;20031;-76
2023/07/31 04:51:09;;;;;;;17.50;15.70;;;;;;;20.65;66.91;94504.00;5091828;28;20028;-76
2023/07/31 04:53:34;;;;;;;17.17;15.38;;;;;;;20.65;66.59;94499.53;5075232;28;20036;-75
2023/07/31 04:55:59;;;;;;;17.38;14.98;;;;;;;20.74;65.81;94505.44;5091720;28;20464;-76
2023/07/31 04:58:25;;;;;;;16.75;14.80;;;;;;;20.82;65.30;94488.63;5074929;28;20028;-76
2023/07/31 05:00:50;;;;;;;15.82;14.15;;;;;;;20.68;65.30;94495.69;5092889;28;20387;-76
2023/07/31 05:03:16;;;;;;;15.23;13.63;;;;;;;20.75;64.85;94494.69;5091597;28;20509;-76
2023/07/31 05:05:41;;;;;;;15.35;13.75;;;;;;;20.60;65.03;94482.66;5091596;28;20482;-76
2023/07/31 05:08:06;;;;;;;14.63;13.13;;;;;;;20.75;64.63;94499.13;5074484;28;20056;-76
2023/07/31 05:10:32;;;;;;;14.75;12.82;;;;;;;20.57;65.23;94483.03;5057849;28;20093;-76
2023/07/31 05:12:57;;;;;;;15.18;12.77;;;;;;;20.62;64.91;94488.56;5074695;28;20032;-76
2023/07/31 05:15:23;;;;;;;14.10;12.70;;;;;;;20.66;65.00;94495.06;5092608;28;20078;-77
2023/07/31 05:17:48;;;;;;;15.15;13.48;;;;;;;20.75;64.82;94502.63;5092711;28;20489;-76
2023/07/31 05:20:14;;;;;;;14.43;12.57;;;;;;;20.73;65.22;94495.91;5092559;28;20024;-76
2023/07/31 05:22:40;;;;;;;14.15;12.70;;;;;;;20.72;64.83;94499.53;5091254;28;20459;-76
2023/07/31 05:25:06;;;;;;;14.20;12.80;;;;;;;20.73;64.68;94501.19;5092441;28;20028;-76
2023/07/31 05:27:31;;;;;;;14.80;13.30;;;;;;;20.77;64.68;94499.75;5091113;28;20077;-76
2023/07/31 05:29:57;;;;;;;15.27;13.68;;;;;;;20.63;65.18;94498.09;5092341;28;20498;-77
2023/07/31 05:32:22;;;;;;;14.93;13.32;;;;;;;20.51;65.41;94488.06;5091020;28;20437;-76
2023/07/31 05:34:51;;;;;;;15.02;13.43;;;;;;;20.84;64.87;94495.34;5057431;28;20036;-76
2023/07/31 05:37:16;;;;;;;15.80;12.50;;;;;;;20.87;64.74;94487.03;5074184;28;20520;-76
2023/07/31 05:39:41;;;;;;;14.90;13.32;;;;;;;21.01;64.57;94502.91;5092062;28;20029;-77
2023/07/31 05:42:07;;;;;;;14.38;12.88;;;;;;;21.24;64.96;94497.28;5092148;28;20073;-77
2023/07/31 05:44:32;;;;;;;12.85;11.55;;;;;;;21.45;62.92;94483.09;5090775;28;20036;-76
2023/07/31 05:46:57;;;;;;;12.10;10.70;;;;;;;21.60;62.56;94487.19;5073840;28;20028;-77
2023/07/31 05:49:23;;;;;;;11.93;10.73;;;;;;;21.76;61.70;94491.25;5091311;28;20028;-76
2023/07/31 05:51:48;;;;;;;11.90;10.70;;;;;;;21.74;61.81;94492.47;5073768;28;20486;-77
2023/07/31 05:54:14;;;;;;;13.18;10.10;;;;;;;21.89;61.23;94485.13;5090546;28;20486;-76
2023/07/31 05:56:39;;;;;;;10.60;9.60;;;;;;;21.78;60.54;94465.41;5091963;28;20027;-77
2023/07/31 05:59:04;;;;;;;10.80;9.70;;;;;;;21.81;60.52;94488.81;5092162;28;20039;-77
2023/07/31 06:01:30;;;;;;;10.73;9.45;;;;;;;21.76;60.47;94474.59;5090523;28;20490;-76
2023/07/31 06:03:55;;;;;;;10.30;9.30;;;;;;;22.01;60.41;94491.44;5090701;28;20024;-77
2023/07/31 06:06:21;;;;;;;11.10;8.48;;;;;;;22.01;59.75;94496.72;5091709;28;20473;-77
2023/07/31 06:08:46;;;;;;;7.90;7.10;;;;;;;22.28;58.22;94492.22;5091639;28;20048;-76
2023/07/31 06:11:11;;;;;;;7.40;6.28;;;;;;;22.44;56.78;94506.03;5090300;28;20039;-77
2023/07/31 06:13:37;;;;;;;7.63;6.85;;;;;;;22.35;57.12;94499.34;5073577;28;20047;-77
2023/07/31 06:16:05;;;;;;;6.53;5.75;;;;;;;22.09;57.08;94493.88;5073427;28;20035;-77
2023/07/31 06:18:32;;;;;;;6.07;5.47;;;;;;;22.20;56.75;94497.72;5090400;28;20040;-76
2023/07/31 06:20:57;;;;;;;7.03;6.18;;;;;;;22.09;57.38;94490.38;5090272;28;20160;-77
2023/07/31 06:23:22;;;;;;;6.57;5.97;;;;;;;22.01;57.54;94488.00;5091659;28;20032;-77
2023/07/31 06:25:48;;;;;;;8.35;5.63;;;;;;;22.04;57.07;94496.31;5073241;28;20035;-77
2023/07/31 06:28:13;;;;;;;6.18;4.95;;;;;;;21.96;56.72;94487.78;5090219;28;20039;-77
2023/07/31 06:30:39;;;;;;;6.32;4.90;;;;;;;22.06;56.40;94491.66;5091286;28;20031;-77
2023/07/31 06:33:04;;;;;;;7.15;5.63;;;;;;;22.08;56.83;94494.88;5090089;28;20031;-76
2023/07/31 06:35:29;;;;;;;6.32;5.72;;;;;;;22.10;57.28;94497.31;5090054;28;20040;-77
2023/07/31 06:37:55;;;;;;;6.45;5.85;;;;;;;22.23;56.98;94507.09;5091048;28;20406;-77
2023/07/31 06:40:20;;;;;;;6.78;5.15;;;;;;;22.28;56.27;94500.16;5073018;28;20036;-77
2023/07/31 06:42:46;;;;;;;4.60;4.18;;;;;;;22.32;54.20;94499.78;5089957;28;20024;-77
2023/07/31 06:45:11;;;;;;;4.70;4.20;;;;;;;22.35;53.46;94481.63;5089961;28;20505;-77
2023/07/31 06:47:36;;;;;;;9.55;3.88;;;;;;;22.66;52.77;94499.44;5091184;28;20024;-77
2023/07/31 06:50:02;;;;;;;3.85;3.20;;;;;;;22.97;52.71;94492.63;5091017;28;20039;-77
2023/07/31 06:52:27;;;;;;;4.57;3.10;;;;;;;23.24;52.00;94503.91;5089540;28;20086;-77
2023/07/31 06:55:19;;;;;;;4.28;3.45;;;;;;;23.15;50.90;94494.56;5090982;28;20504;-77
2023/07/31 06:57:44;;;;;;;4.85;3.65;;;;;;;23.15;51.64;94495.41;5072771;28;20035;-77
2023/07/31 07:00:10;;;;;;;4.15;3.42;;;;;;;23.17;51.72;94498.63;5073511;28;20032;-77
2023/07/31 07:02:36;;;;;;;4.00;3.35;;;;;;;23.20;51.74;94492.91;5093939;28;20506;-77
2023/07/31 07:05:02;;;;;;;5.10;3.40;;;;;;;23.24;51.28;94500.44;5093946;28;20028;-77
2023/07/31 07:07:27;;;;;;;3.97;3.53;;;;;;;23.17;51.92;94509.22;5094883;28;20036;-76
2023/07/31 07:09:53;;;;;;;4.53;3.13;;;;;;;23.13;51.54;94510.69;5093825;28;20414;-76
2023/07/31 07:12:18;;;;;;;3.90;3.28;;;;;;;23.18;52.44;94496.81;5093554;28;20405;-77
2023/07/31 07:14:45;;;;;;;5.70;3.63;;;;;;;23.41;52.19;94504.22;5076841;28;20032;-77
2023/07/31 07:17:11;;;;;;;4.07;3.30;;;;;;;23.62;51.43;94500.38;5093596;28;20036;-77
2023/07/31 07:19:39;;;;;;;4.65;3.15;;;;;;;24.06;49.82;94494.13;5094847;28;20470;-77
2023/07/31 07:22:05;;;;;;;4.80;3.03;;;;;;;24.26;49.09;94501.09;5093716;28;20059;-76
2023/07/31 07:24:31;;;;;;;5.03;2.90;;;;;;;24.24;49.02;94487.25;5093469;28;20450;-77
2023/07/31 07:26:56;;;;;;;3.40;3.08;;;;;;;24.21;49.87;94485.84;5093583;28;20031;-77
2023/07/31 07:29:22;;;;;;;4.00;2.90;;;;;;;24.50;49.14;94494.16;5076522;28;20036;-77
2023/07/31 07:31:47;;;;;;;3.17;2.65;;;;;;;24.86;48.28;94495.19;5093558;28;20032;-77
2023/07/31 07:34:12;;;;;;;8.18;2.63;;;;;;;24.75;47.55;94499.38;5076683;28;20024;-76
2023/07/31 07:36:38;;;;;;;4.60;2.95;;;;;;;24.55;47.50;94494.31;5076504;28;20467;-77
2023/07/31 07:39:03;;;;;;;3.60;2.80;;;;;;;24.73;46.88;94496.13;5094993;28;20020;-77
2023/07/31 07:41:29;;;;;;;5.30;2.60;;;;;;;25.15;46.87;94504.22;5093411;28;20039;-77
2023/07/31 07:43:54;;;;;;;3.13;2.50;;;;;;;25.25;45.28;94499.19;5093345;28;20470;-77
2023/07/31 07:46:20;;;;;;;2.83;2.25;;;;;;;24.97;45.43;94508.53;5093337;28;20032;-77
2023/07/31 07:48:45;;;;;;;3.60;2.60;;;;;;;24.90;45.49;94499.81;5093282;28;20036;-77
2023/07/31 07:51:10;;;;;;;3.58;2.40;;;;;;;24.62;46.24;94487.06;5093085;28;20481;-77
2023/07/31 07:53:36;;;;;;;2.85;2.30;;;;;;;24.93;46.45;94507.34;5094587;28;20036;-76
2023/07/31 07:56:01;;;;;;;3.88;2.40;;;;;;;24.68;46.07;94517.22;5093130;28;20039;-77
2023/07/31 07:58:26;;;;;;;4.22;2.30;;;;;;;24.75;46.38;94528.59;5093104;28;20524;-77
2023/07/31 08:00:52;;;;;;;4.43;2.70;;;;;;;24.58;47.02;94525.72;5094224;28;20024;-76
2023/07/31 08:03:17;;;;;;;3.05;2.50;;;;;;;24.36;46.76;94522.66;5093019;28;20031;-77
2023/07/31 08:05:43;;;;;;;4.18;2.60;;;;;;;24.35;47.38;94523.69;5094031;28;20505;-76
2023/07/31 08:08:13;;;;;;;3.97;2.50;;;;;;;24.41;47.43;94525.47;5092601;28;20048;-76
2023/07/31 08:10:38;;;;;;;3.58;2.45;;;;;;;24.38;46.18;94498.56;5092721;28;20119;-76
2023/07/31 08:13:04;;;;;;;3.38;2.35;;;;;;;24.41;46.67;94509.53;5092183;28;20032;-77
2023/07/31 08:15:29;;;;;;;3.67;2.42;;;;;;;24.40;47.22;94507.09;5093826;28;20036;-76
2023/07/31 08:17:55;;;;;;;3.92;2.38;;;;;;;24.25;47.65;94508.25;5093952;28;20531;-76
2023/07/31 08:20:20;;;;;;;4.13;2.35;;;;;;;24.58;47.14;94504.47;5093715;28;20032;-76
2023/07/31 08:22:46;;;;;;;2.78;2.28;;;;;;;24.76;46.84;94516.94;5093815;28;20032;-76
2023/07/31 08:25:11;;;;;;;2.58;2.20;;;;;;;24.70;45.68;94517.84;5092439;28;20058;-76
2023/07/31 08:27:37;;;;;;;3.30;2.25;;;;;;;24.58;45.86;94509.00;5075478;28;20097;-77
2023/07/31 08:30:02;;;;;;;2.60;2.10;;;;;;;24.75;45.76;94510.81;5092318;28;20039;-77
2023/07/31 08:32:28;;;;;;;2.80;2.20;;;;;;;24.91;46.14;94509.41;5075144;28;20031;-77
2023/07/31 08:34:53;;;;;;;3.58;2.58;;;;;;;25.15;45.33;94515.66;5092342;28;20478;-76
2023/07/31 08:37:19;;;;;;;2.53;2.08;;;;;;;25.18;44.31;94487.84;5093494;28;20036;-76
2023/07/31 08:39:44;;;;;;;4.00;2.45;;;;;;;25.58;44.24;94511.22;5092180;28;20032;-76
2023/07/31 08:42:09;;;;;;;4.80;2.25;;;;;;;25.78;43.79;94503.72;5093325;28;20024;-77
2023/07/31 08:44:35;;;;;;;4.50;2.10;;;;;;;26.09;42.41;94504.50;5093302;28;20035;-77
2023/07/31 08:47:00;;;;;;;2.85;2.17;;;;;;;26.17;42.66;94495.38;5092067;28;20027;-77
2023/07/31 08:49:26;;;;;;;5.30;2.35;;;;;;;26.25;41.65;94498.47;5074916;28;20027;-77
2023/07/31 08:51:51;;;;;;;2.78;2.15;;;;;;;26.03;42.10;94508.09;5091897;28;20387;-77
2023/07/31 08:54:17;;;;;;;3.15;2.30;;;;;;;26.10;42.77;94506.09;5091770;28;20039;-76
2023/07/31 08:56:42;;;;;;;3.00;2.13;;;;;;;26.07;42.03;94507.38;5091842;28;20017;-77
2023/07/31 08:59:07;;;;;;;3.10;2.30;;;;;;;26.29;41.24;94510.28;5091927;28;20533;-76
2023/07/31 09:01:36;;;;;;;4.85;2.45;;;;;;;26.36;41.52;94504.03;5075018;28;20509;-77
2023/07/31 09:04:01;;;;;;;3.55;2.30;;;;;;;26.25;41.87;94482.50;5091957;28;20036;-77
2023/07/31 09:06:27;;;;;;;2.85;2.20;;;;;;;26.41;41.00;94494.31;5091699;28;20024;-77
2023/07/31 09:08:53;;;;;;;3.63;2.33;;;;;;;26.19;41.40;94472.81;5091491;28;20044;-77
2023/07/31 09:11:19;;;;;;;3.50;2.00;;;;;;;26.55;40.65;94504.72;5091484;28;20515;-77
2023/07/31 09:13:44;;;;;;;4.20;2.20;;;;;;;26.86;40.81;94499.00;5091664;28;20050;-77
2023/07/31 09:16:10;;;;;;;3.67;2.55;;;;;;;26.63;39.86;94494.53;5091516;28;20130;-77
2023/07/31 09:18:56;;;;;;;6.82;2.47;;;;;;;26.83;40.60;94488.00;5091537;28;20031;-77
2023/07/31 09:21:22;;;;;;;4.10;2.20;;;;;;;27.04;39.52;94482.03;5091298;28;20028;-77
2023/07/31 09:23:48;;;;;;;3.25;2.35;;;;;;;27.21;38.45;94486.63;5090256;28;20020;-77
2023/07/31 09:26:30;;;;;;;2.83;2.00;;;;;;;27.42;38.28;94479.84;5091242;28;20059;-77
2023/07/31 09:28:56;;;;;;;2.40;1.88;;;;;;;27.56;37.70;94473.94;5092840;28;20389;-76
2023/07/31 09:31:32;;;;;;;3.25;2.10;;;;;;;27.71;37.90;94469.91;5074126;28;20050;-77
2023/07/31 09:33:57;;;;;;;4.95;2.10;;;;;;;27.70;37.97;94478.97;5091399;28;20028;-76
2023/07/31 09:36:22;;;;;;;2.60;1.92;;;;;;;27.94;37.40;94477.78;5091050;28;20059;-76
2023/07/31 09:38:48;;;;;;;2.60;2.20;;;;;;;27.98;35.81;94457.56;5091023;28;20035;-76
2023/07/31 09:41:13;;;;;;;2.75;2.10;;;;;;;28.17;35.57;94466.13;5090893;28;20028;-77
2023/07/31 09:43:39;;;;;;;2.65;2.25;;;;;;;27.73;36.93;94460.63;5091077;28;20047;-77
2023/07/31 09:46:04;;;;;;;5.20;2.03;;;;;;;27.64;37.32;94459.41;5092324;28;20032;-77
2023/07/31 09:48:30;;;;;;;5.78;2.33;;;;;;;27.80;37.79;94455.16;5073972;28;20032;-77
2023/07/31 09:50:55;;;;;;;2.90;1.90;;;;;;;28.00;36.66;94457.31;5090773;28;20024;-77
2023/07/31 09:53:28;;;;;;;3.05;2.10;;;;;;;28.22;37.11;94468.88;5092198;28;20020;-77
2023/07/31 09:55:53;;;;;;;2.30;1.88;;;;;;;28.29;36.42;94447.34;5090777;28;20063;-77
2023/07/31 09:58:18;;;;;;;3.80;2.10;;;;;;;28.25;37.09;94446.19;5090806;28;20041;-77
2023/07/31 10:00:44;;;;;;;4.28;2.20;;;;;;;28.18;37.13;94466.94;5073711;28;20490;-77
2023/07/31 10:03:10;;;;;;;4.78;2.28;;;;;;;28.18;37.15;94458.94;5090686;28;20259;-77
2023/07/31 10:06:05;;;;;;;2.90;2.20;;;;;;;28.04;36.57;94464.59;5073587;28;20036;-77
2023/07/31 10:08:30;;;;;;;3.28;2.20;;;;;;;27.65;36.82;94431.69;5081680;28;20364;-77
2023/07/31 10:10:58;;;;;;;4.10;2.25;;;;;;;28.02;37.07;94458.69;5090325;28;20040;-77
2023/07/31 10:13:24;;;;;;;6.68;2.70;;;;;;;28.08;36.50;94451.56;5090268;28;20024;-77
2023/07/31 10:15:49;;;;;;;5.75;2.40;;;;;;;28.23;36.26;94459.81;5090518;28;20039;-77
2023/07/31 10:18:14;;;;;;;2.92;2.60;;;;;;;28.11;36.44;94445.75;5073414;28;20036;-77
2023/07/31 10:20:40;;;;;;;4.93;2.70;;;;;;;28.20;36.69;94451.50;5090343;28;20035;-76
2023/07/31 10:23:05;;;;;;;3.60;2.35;;;;;;;28.56;36.25;94447.47;5073416;28;20090;-76
2023/07/31 10:25:31;;;;;;;2.50;1.90;;;;;;;28.73;36.61;94447.41;5073253;28;20429;-77
2023/07/31 10:27:56;;;;;;;3.20;2.50;;;;;;;28.73;36.62;94445.53;5073113;28;20032;-76
2023/07/31 10:30:24;;;;;;;3.63;1.83;;;;;;;28.53;34.60;94453.31;5090077;28;20038;-77
2023/07/31 10:32:50;;;;;;;2.63;1.90;;;;;;;28.64;35.25;94449.72;5089994;28;20032;-77
2023/07/31 10:35:16;;;;;;;3.60;1.92;;;;;;;28.33;35.19;94444.97;5089686;28;20032;-76
2023/07/31 10:37:42;;;;;;;5.00;2.10;;;;;;;28.07;36.34;94449.97;5089871;28;20080;-76
2023/07/31 10:40:19;;;;;;;4.22;1.90;;;;;;;28.21;35.79;94445.88;5090021;28;20107;-77
2023/07/31 10:42:48;;;;;;;2.30;1.83;;;;;;;27.93;36.19;94441.47;5089837;28;20067;-77
2023/07/31 10:45:13;;;;;;;2.20;1.70;;;;;;;28.08;35.91;94435.56;5091149;28;20040;-76
2023/07/31 10:47:43;;;;;;;2.33;1.77;;;;;;;28.05;35.23;94430.72;5072982;28;20028;-77
2023/07/31 10:50:23;;;;;;;3.20;1.98;;;;;;;28.01;35.75;94437.59;5091158;28;20111;-76
2023/07/31 10:52:53;;;;;;;3.58;1.70;;;;;;;27.98;35.56;94430.88;5073024;28;20123;-76
2023/07/31 10:55:24;;;;;;;3.25;1.70;;;;;;;27.95;35.21;94431.38;5089776;28;20033;-77
2023/07/31 10:57:50;;;;;;;3.55;1.88;;;;;;;28.15;35.44;94433.53;5091170;28;20035;-77
2023/07/31 11:00:20;;;;;;;2.75;1.80;;;;;;;28.09;35.44;94407.81;5072878;28;20032;-76
2023/07/31 11:02:59;;;;;;;2.78;1.83;;;;;;;28.08;35.99;94403.50;5089783;28;20035;-76
2023/07/31 11:05:40;;;;;;;4.03;1.88;;;;;;;28.18;35.20;94426.91;5089735;28;20067;-76
2023/07/31 11:08:22;;;;;;;4.65;1.73;;;;;;;28.09;35.86;94415.03;5090691;28;20118;-76
2023/07/31 11:10:49;;;;;;;4.07;1.55;;;;;;;28.02;35.85;94407.19;5089658;28;20056;-77
2023/07/31 11:13:15;;;;;;;2.33;1.80;;;;;;;27.93;36.13;94405.97;5089684;28;20557;-77
2023/07/31 11:15:40;;;;;;;3.33;1.83;;;;;;;28.11;35.77;94408.41;5072722;28;20051;-77
2023/07/31 11:18:07;;;;;;;3.33;1.80;;;;;;;28.19;34.56;94410.59;5072766;28;20028;-76
2023/07/31 11:20:33;;;;;;;2.53;1.67;;;;;;;27.99;34.62;94403.13;5072936;28;20032;-76
2023/07/31 11:23:08;;;;;;;3.47;1.90;;;;;;;27.96;34.94;94410.81;5089634;28;20066;-76